createdAt,value
2023-05-14T00:00:38.254Z,85.09
2023-05-14T00:02:39.798Z,84.83
2023-05-14T00:04:41.596Z,86.08
2023-05-14T00:06:43.229Z,85.71
2023-05-14T00:08:44.836Z,84.79
2023-05-14T00:10:46.374Z,85.48
2023-05-14T00:12:48.066Z,86.05
2023-05-14T00:14:49.599Z,85.65
2023-05-14T00:16:51.100Z,85.79
2023-05-14T00:18:52.689Z,85.78
2023-05-14T00:20:55.014Z,85.07
2023-05-14T00:22:56.658Z,85.83
2023-05-14T00:24:58.171Z,86.48
2023-05-14T00:26:59.738Z,87.42
2023-05-14T00:29:01.385Z,87.63
2023-05-14T00:31:02.962Z,88.20
2023-05-14T00:33:04.535Z,87.18
2023-05-14T00:35:06.559Z,86.67
2023-05-14T00:37:08.169Z,86.52
2023-05-14T00:39:10.099Z,86.39
2023-05-14T00:41:12.168Z,86.62
2023-05-14T00:43:13.637Z,86.97
2023-05-14T00:45:15.422Z,87.29
2023-05-14T00:47:16.962Z,87.06
2023-05-14T00:49:18.733Z,87.33
2023-05-14T00:51:20.536Z,87.71
2023-05-14T00:53:22.383Z,87.76
2023-05-14T00:55:23.975Z,86.87
2023-05-14T00:57:25.548Z,87.26
2023-05-14T00:59:27.091Z,87.05
2023-05-14T01:01:34.136Z,85.78
2023-05-14T01:03:36.194Z,86.62
2023-05-14T01:06:01.114Z,85.58
2023-05-14T01:10:52.913Z,86.18
2023-05-14T01:13:04.415Z,87.92
2023-05-14T01:15:09.251Z,88.08
2023-05-14T01:17:13.311Z,86.83
2023-05-14T01:19:37.737Z,87.03
2023-05-14T01:21:42.794Z,86.59
2023-05-14T01:23:44.304Z,86.40
2023-05-14T01:25:45.952Z,87.16
2023-05-14T01:27:53.533Z,87.37
2023-05-14T01:30:31.096Z,87.14
2023-05-14T01:32:33.711Z,86.64
2023-05-14T01:34:37.643Z,87.30
2023-05-14T01:36:41.129Z,86.90
2023-05-14T01:38:45.770Z,86.24
2023-05-14T01:40:48.770Z,87.22
2023-05-14T01:42:51.987Z,86.92
2023-05-14T01:44:54.227Z,86.17
2023-05-14T01:46:55.854Z,87.80
2023-05-14T01:48:57.380Z,87.47
2023-05-14T01:50:58.947Z,87.21
2023-05-14T01:53:00.529Z,87.07
2023-05-14T01:55:02.070Z,86.89
2023-05-14T01:57:03.725Z,87.95
2023-05-14T01:59:05.334Z,87.51
2023-05-14T02:01:06.927Z,87.14
2023-05-14T02:03:08.469Z,87.96
2023-05-14T02:05:11.641Z,88.30
2023-05-14T02:07:13.248Z,88.25
2023-05-14T02:09:14.825Z,87.53
2023-05-14T02:11:16.385Z,87.37
2023-05-14T02:13:17.924Z,87.14
2023-05-14T02:20:11.705Z,88.11
2023-05-14T02:22:13.475Z,88.55
2023-05-14T02:24:15.121Z,87.70
2023-05-14T02:26:16.699Z,87.34
2023-05-14T02:28:18.232Z,88.67
2023-05-14T02:30:21.721Z,87.85
2023-05-14T02:32:23.515Z,86.99
2023-05-14T02:34:25.477Z,88.32
2023-05-14T02:36:29.928Z,87.47
2023-05-14T02:38:31.484Z,88.73
2023-05-14T02:40:33.034Z,87.21
2023-05-14T02:42:35.346Z,87.27
2023-05-14T02:44:37.061Z,87.67
2023-05-14T02:46:38.594Z,87.88
2023-05-14T02:48:40.220Z,87.53
2023-05-14T02:50:41.740Z,87.47
2023-05-14T02:52:43.315Z,88.82
2023-05-14T02:54:44.837Z,88.96
2023-05-14T02:56:47.136Z,87.23
2023-05-14T02:58:48.623Z,87.47
2023-05-14T03:00:50.321Z,86.99
2023-05-14T03:02:52.503Z,88.35
2023-05-14T03:04:54.509Z,88.47
2023-05-14T03:06:56.096Z,88.94
2023-05-14T03:08:57.603Z,89.13
2023-05-14T03:10:59.152Z,87.54
2023-05-14T03:13:00.715Z,88.12
2023-05-14T03:15:02.249Z,88.13
2023-05-14T03:17:04.096Z,87.64
2023-05-14T03:19:05.795Z,88.79
2023-05-14T03:21:09.047Z,87.66
2023-05-14T03:23:10.657Z,88.91
2023-05-14T03:25:12.267Z,88.22
2023-05-14T03:27:13.807Z,88.35
2023-05-14T03:29:18.066Z,87.64
2023-05-14T03:31:19.830Z,87.08
2023-05-14T03:33:21.788Z,87.28
2023-05-14T03:35:23.386Z,87.95
2023-05-14T03:37:24.934Z,88.58
2023-05-14T03:39:26.459Z,88.12
2023-05-14T03:41:27.969Z,88.22
2023-05-14T03:43:29.534Z,88.48
2023-05-14T03:45:32.391Z,87.91
2023-05-14T03:47:33.947Z,87.89
2023-05-14T03:49:35.464Z,87.63
2023-05-14T03:51:37.012Z,87.07
2023-05-14T03:53:38.548Z,86.84
2023-05-14T03:55:40.220Z,87.08
2023-05-14T03:57:41.609Z,87.71
2023-05-14T03:59:43.334Z,87.69
2023-05-14T04:01:44.903Z,86.74
2023-05-14T04:03:46.590Z,87.00
2023-05-14T04:05:48.169Z,87.35
2023-05-14T04:07:49.809Z,87.62
2023-05-14T04:09:51.383Z,87.89
2023-05-14T04:11:52.917Z,87.46
2023-05-14T04:13:54.538Z,86.47
2023-05-14T04:15:56.101Z,86.26
2023-05-14T04:17:57.778Z,86.06
2023-05-14T04:19:59.398Z,86.91
2023-05-14T04:22:00.908Z,86.93
2023-05-14T04:24:02.447Z,86.12
2023-05-14T04:26:05.006Z,87.38
2023-05-14T04:28:06.576Z,87.16
2023-05-14T04:30:08.839Z,87.21
2023-05-14T04:32:10.595Z,87.20
2023-05-14T04:34:12.243Z,86.88
2023-05-14T04:36:14.028Z,87.02
2023-05-14T04:38:15.620Z,87.29
2023-05-14T04:40:17.339Z,86.69
2023-05-14T04:42:18.906Z,87.46
2023-05-14T04:44:20.450Z,87.78
2023-05-14T04:46:22.414Z,87.27
2023-05-14T04:48:23.993Z,87.24
2023-05-14T04:50:25.822Z,87.55
2023-05-14T04:52:27.608Z,88.38
2023-05-14T04:54:29.366Z,88.38
2023-05-14T04:56:30.943Z,88.01
2023-05-14T04:58:34.628Z,87.27
2023-05-14T05:00:37.040Z,87.26
2023-05-14T05:02:38.666Z,86.94
2023-05-14T05:04:40.375Z,87.86
2023-05-14T05:06:41.925Z,87.81
2023-05-14T05:08:43.504Z,88.03
2023-05-14T05:10:45.003Z,88.59
2023-05-14T05:12:46.526Z,87.13
2023-05-14T05:14:48.046Z,86.59
2023-05-14T05:16:49.603Z,87.52
2023-05-14T05:18:51.323Z,87.00
2023-05-14T05:20:52.932Z,87.42
2023-05-14T05:22:54.436Z,87.81
2023-05-14T05:24:56.025Z,87.28
2023-05-14T05:26:57.516Z,87.20
2023-05-14T05:28:59.431Z,86.96
2023-05-14T05:31:01.044Z,86.91
2023-05-14T05:33:02.588Z,88.66
2023-05-14T05:35:04.535Z,87.70
2023-05-14T05:37:06.236Z,88.83
2023-05-14T05:39:07.859Z,88.13
2023-05-14T05:41:09.347Z,88.37
2023-05-14T05:43:10.945Z,87.75
2023-05-14T05:45:12.570Z,87.04
2023-05-14T05:47:14.093Z,87.88
2023-05-14T05:49:15.574Z,87.92
2023-05-14T05:51:17.120Z,88.91
2023-05-14T05:53:18.733Z,88.05
2023-05-14T05:55:20.352Z,87.78
2023-05-14T05:57:25.677Z,87.52
2023-05-14T05:59:27.903Z,88.72
2023-05-14T06:01:29.514Z,86.98
2023-05-14T06:03:31.025Z,87.28
2023-05-14T06:05:32.705Z,87.26
2023-05-14T06:07:34.476Z,87.41
2023-05-14T06:09:35.986Z,86.95
2023-05-14T06:11:37.479Z,88.27
2023-05-14T06:13:39.009Z,88.05
2023-05-14T06:15:41.958Z,87.73
2023-05-14T06:17:43.564Z,87.06
2023-05-14T06:19:45.411Z,86.23
2023-05-14T06:21:46.938Z,86.13
2023-05-14T06:23:48.495Z,85.09
2023-05-14T06:25:50.969Z,86.16
2023-05-14T06:27:52.533Z,86.08
2023-05-14T06:29:54.054Z,84.08
2023-05-14T06:32:03.814Z,85.43
2023-05-14T06:34:06.634Z,84.63
2023-05-14T06:36:08.541Z,83.71
2023-05-14T06:38:10.036Z,84.32
2023-05-14T06:40:12.927Z,84.25
2023-05-14T06:42:14.470Z,83.96
2023-05-14T06:44:19.457Z,86.32
2023-05-14T06:46:21.306Z,85.92
2023-05-14T06:48:23.060Z,84.74
2023-05-14T06:50:25.100Z,85.70
2023-05-14T06:52:26.977Z,85.04
2023-05-14T06:54:28.498Z,83.58
2023-05-14T06:56:32.714Z,83.02
2023-05-14T06:58:34.217Z,83.44
2023-05-14T07:00:35.761Z,82.57
2023-05-14T07:02:37.336Z,81.72
2023-05-14T07:04:38.956Z,81.79
2023-05-14T07:06:40.780Z,80.30
2023-05-14T07:08:45.906Z,80.30
2023-05-14T07:10:47.429Z,79.85
2023-05-14T07:12:49.460Z,78.58
2023-05-14T07:14:51.282Z,77.30
2023-05-14T07:16:52.863Z,77.66
2023-05-14T07:18:54.443Z,77.56
2023-05-14T07:20:55.976Z,77.19
2023-05-14T07:22:57.518Z,76.01
2023-05-14T07:24:59.035Z,76.02
2023-05-14T07:27:01.876Z,76.05
2023-05-14T07:29:03.476Z,75.89
2023-05-14T07:31:08.952Z,76.78
2023-05-14T07:33:10.826Z,75.67
2023-05-14T07:35:12.477Z,75.75
2023-05-14T07:37:14.033Z,75.12
2023-05-14T07:39:15.712Z,74.08
2023-05-14T07:41:17.332Z,73.77
2023-05-14T07:43:18.835Z,74.44
2023-05-14T07:45:20.364Z,72.69
2023-05-14T07:47:21.910Z,72.36
2023-05-14T07:49:23.452Z,72.69
2023-05-14T07:51:28.187Z,71.45
2023-05-14T07:53:29.748Z,70.61
2023-05-14T07:55:31.455Z,71.08
2023-05-14T07:57:32.988Z,69.67
2023-05-14T07:59:34.718Z,69.57
2023-05-14T08:01:39.193Z,69.26
2023-05-14T08:03:41.142Z,69.96
2023-05-14T08:05:42.748Z,69.74
2023-05-14T08:07:44.602Z,70.47
2023-05-14T08:09:46.156Z,69.58
2023-05-14T08:11:47.655Z,70.40
2023-05-14T08:13:49.165Z,69.70
2023-05-14T08:15:51.297Z,69.20
2023-05-14T08:17:52.900Z,68.58
2023-05-14T08:19:54.497Z,68.18
2023-05-14T08:21:56.040Z,67.78
2023-05-14T08:23:57.770Z,68.80
2023-05-14T08:25:59.842Z,67.09
2023-05-14T08:28:01.846Z,66.25
2023-05-14T08:30:04.127Z,65.98
2023-05-14T08:32:19.318Z,67.16
2023-05-14T08:34:24.680Z,66.08
2023-05-14T08:36:26.880Z,65.21
2023-05-14T08:38:28.391Z,64.64
2023-05-14T08:40:30.271Z,63.87
2023-05-14T08:42:32.376Z,65.56
2023-05-14T08:44:44.659Z,65.62
2023-05-14T08:46:46.942Z,63.21
2023-05-14T08:48:58.364Z,61.95
2023-05-14T08:51:00.750Z,62.58
2023-05-14T08:53:02.301Z,63.83
2023-05-14T08:55:05.599Z,62.26
2023-05-14T08:57:10.354Z,63.14
2023-05-14T08:59:12.784Z,59.63
2023-05-14T09:01:14.341Z,60.63
2023-05-14T09:03:16.402Z,60.88
2023-05-14T09:05:19.258Z,61.72
2023-05-14T09:07:20.897Z,60.11
2023-05-14T09:09:23.143Z,58.45
2023-05-14T09:11:24.744Z,57.87
2023-05-14T09:13:28.230Z,59.14
2023-05-14T09:15:31.585Z,58.15
2023-05-14T09:17:33.833Z,57.13
2023-05-14T09:19:35.513Z,57.67
2023-05-14T09:21:37.333Z,58.57
2023-05-14T09:23:42.465Z,58.00
2023-05-14T09:25:44.038Z,57.22
2023-05-14T09:27:50.133Z,56.06
2023-05-14T09:29:51.930Z,54.31
2023-05-14T09:31:54.929Z,56.61
2023-05-14T09:33:56.590Z,56.43
2023-05-14T09:36:02.017Z,55.79
2023-05-14T09:38:03.612Z,55.48
2023-05-14T09:40:08.938Z,56.34
2023-05-14T09:42:10.659Z,55.25
2023-05-14T09:44:12.191Z,56.25
2023-05-14T09:46:13.693Z,55.09
2023-05-14T09:48:15.883Z,53.08
2023-05-14T09:50:17.423Z,56.07
2023-05-14T09:52:19.838Z,56.08
2023-05-14T09:54:21.404Z,57.40
2023-05-14T09:56:23.623Z,59.68
2023-05-14T09:58:25.250Z,56.91
2023-05-14T10:00:26.963Z,57.78
2023-05-14T10:02:37.484Z,56.85
2023-05-14T10:04:39.704Z,57.26
2023-05-14T10:06:44.035Z,57.18
2023-05-14T10:08:48.615Z,57.28
2023-05-14T10:10:51.808Z,57.46
2023-05-14T10:12:58.376Z,58.01
2023-05-14T10:15:06.856Z,55.16
2023-05-14T10:17:18.060Z,56.42
2023-05-14T10:19:23.707Z,57.64
2023-05-14T10:21:29.544Z,55.26
2023-05-14T10:23:31.233Z,55.06
2023-05-14T10:25:33.087Z,53.45
2023-05-14T10:27:34.685Z,56.37
2023-05-14T10:29:38.024Z,52.32
2023-05-14T10:31:56.562Z,55.36
2023-05-14T10:33:59.797Z,54.28
2023-05-14T10:36:04.180Z,53.90
2023-05-14T10:38:08.770Z,57.77
2023-05-14T10:40:10.571Z,48.45
2023-05-14T10:42:15.521Z,52.55
2023-05-14T10:44:17.436Z,50.93
2023-05-14T10:46:19.266Z,51.05
2023-05-14T10:48:21.434Z,50.91
2023-05-14T10:50:23.741Z,52.06
2023-05-14T10:52:26.407Z,52.33
2023-05-14T10:54:28.690Z,49.90
2023-05-14T10:56:30.345Z,50.88
2023-05-14T10:58:35.128Z,53.40
2023-05-14T11:00:37.613Z,52.58
2023-05-14T11:02:42.063Z,53.76
2023-05-14T11:04:52.371Z,50.49
2023-05-14T11:06:55.415Z,50.79
2023-05-14T11:08:58.554Z,51.11
2023-05-14T11:11:00.456Z,52.18
2023-05-14T11:13:02.602Z,49.21
2023-05-14T11:15:07.257Z,52.57
2023-05-14T11:17:09.070Z,53.11
2023-05-14T11:19:11.244Z,52.12
2023-05-14T11:21:13.122Z,51.13
2023-05-14T11:23:14.850Z,53.33
2023-05-14T11:25:17.799Z,53.63
2023-05-14T11:27:21.502Z,52.75
2023-05-14T11:29:23.033Z,54.46
2023-05-14T11:31:25.601Z,51.44
2023-05-14T11:33:27.814Z,53.46
2023-05-14T11:35:31.663Z,50.06
2023-05-14T11:37:33.190Z,52.27
2023-05-14T11:39:38.571Z,49.93
2023-05-14T11:41:45.091Z,50.70
2023-05-14T11:43:46.633Z,51.79
2023-05-14T11:45:52.677Z,51.09
2023-05-14T11:47:57.055Z,51.87
2023-05-14T11:50:00.512Z,53.89
2023-05-14T11:52:05.230Z,50.42
2023-05-14T11:54:06.710Z,50.17
2023-05-14T11:56:09.809Z,49.21
2023-05-14T11:58:12.690Z,50.97
2023-05-14T12:00:16.872Z,50.73
2023-05-14T12:02:22.890Z,51.69
2023-05-14T12:04:24.996Z,51.97
2023-05-14T12:06:32.270Z,48.58
2023-05-14T12:08:34.039Z,48.88
2023-05-14T12:10:42.540Z,47.95
2023-05-14T12:12:47.269Z,49.27
2023-05-14T12:14:49.982Z,47.86
2023-05-14T12:16:51.845Z,48.89
2023-05-14T12:18:53.523Z,47.99
2023-05-14T12:20:55.618Z,46.62
2023-05-14T12:22:57.184Z,48.58
2023-05-14T12:25:00.270Z,49.23
2023-05-14T12:27:04.074Z,49.23
2023-05-14T12:29:08.748Z,49.18
2023-05-14T12:31:10.419Z,45.52
2023-05-14T12:33:12.088Z,46.43
2023-05-14T12:35:13.646Z,45.13
2023-05-14T12:37:15.138Z,46.55
2023-05-14T12:39:16.832Z,46.45
2023-05-14T12:41:18.693Z,46.32
2023-05-14T12:43:20.655Z,46.24
2023-05-14T12:45:22.323Z,45.72
2023-05-14T12:47:24.220Z,46.83
2023-05-14T12:49:26.010Z,45.18
2023-05-14T12:51:27.621Z,44.50
2023-05-14T12:53:29.153Z,44.81
2023-05-14T12:55:30.778Z,48.07
2023-05-14T12:57:32.409Z,45.98
2023-05-14T12:59:33.984Z,44.42
2023-05-14T13:01:35.686Z,43.33
2023-05-14T13:03:37.360Z,44.81
2023-05-14T13:05:38.956Z,41.77
2023-05-14T13:07:40.636Z,44.04
2023-05-14T13:09:42.153Z,42.83
2023-05-14T13:11:43.651Z,43.02
2023-05-14T13:13:45.318Z,41.90
2023-05-14T13:15:46.983Z,42.31
2023-05-14T13:17:49.089Z,44.21
2023-05-14T13:19:50.620Z,45.66
2023-05-14T13:21:52.144Z,41.52
2023-05-14T13:23:53.755Z,40.64
2023-05-14T13:25:55.303Z,40.80
2023-05-14T13:27:56.839Z,41.35
2023-05-14T13:29:58.355Z,43.42
2023-05-14T13:31:59.960Z,40.32
2023-05-14T13:34:02.547Z,41.57
2023-05-14T13:36:04.655Z,40.81
2023-05-14T13:38:06.190Z,40.28
2023-05-14T13:40:08.378Z,41.41
2023-05-14T13:42:09.947Z,41.89
2023-05-14T13:44:11.578Z,40.99
2023-05-14T13:46:13.120Z,41.21
2023-05-14T13:48:14.715Z,41.54
2023-05-14T13:50:16.429Z,39.87
2023-05-14T13:52:17.953Z,39.59
2023-05-14T13:54:19.480Z,41.39
2023-05-14T13:56:21.558Z,41.58
2023-05-14T13:58:24.520Z,41.11
2023-05-14T14:00:27.144Z,40.07
2023-05-14T14:02:28.662Z,43.87
2023-05-14T14:04:30.614Z,42.12
2023-05-14T14:06:32.821Z,42.86
2023-05-14T14:08:34.337Z,45.45
2023-05-14T14:10:36.563Z,43.61
2023-05-14T14:12:38.251Z,43.99
2023-05-14T14:14:39.787Z,41.73
2023-05-14T14:16:41.365Z,42.99
2023-05-14T14:18:43.396Z,42.22
2023-05-14T14:20:45.095Z,42.73
2023-05-14T14:22:46.986Z,41.28
2023-05-14T14:24:48.502Z,41.02
2023-05-14T14:26:50.046Z,41.94
2023-05-14T14:28:51.562Z,39.98
2023-05-14T14:30:53.202Z,42.66
2023-05-14T14:32:54.937Z,42.99
2023-05-14T14:34:56.544Z,41.41
2023-05-14T14:36:58.084Z,42.60
2023-05-14T14:38:59.663Z,40.97
2023-05-14T14:41:03.219Z,37.92
2023-05-14T14:43:04.844Z,38.67
2023-05-14T14:45:07.410Z,40.09
2023-05-14T14:47:08.956Z,42.93
2023-05-14T14:49:10.531Z,40.00
2023-05-14T14:51:12.152Z,38.69
2023-05-14T14:53:20.075Z,34.41
2023-05-14T14:55:21.867Z,29.15
2023-05-14T14:57:23.532Z,27.57
2023-05-14T14:59:25.108Z,26.16
2023-05-14T15:01:26.706Z,23.72
2023-05-14T15:03:28.958Z,25.52
2023-05-14T15:05:30.765Z,24.14
2023-05-14T15:07:33.088Z,23.19
2023-05-14T15:09:34.738Z,23.61
2023-05-14T15:11:37.545Z,25.98
2023-05-14T15:13:40.940Z,27.70
2023-05-14T15:15:42.847Z,31.49
2023-05-14T15:17:44.420Z,27.69
2023-05-14T15:19:46.066Z,24.74
2023-05-14T15:21:47.636Z,23.42
2023-05-14T15:23:49.165Z,23.54
2023-05-14T15:25:50.740Z,25.52
2023-05-14T15:27:52.305Z,26.04
2023-05-14T15:29:53.835Z,26.66
2023-05-14T15:31:55.452Z,28.10
2023-05-14T15:33:57.117Z,25.50
2023-05-14T15:35:58.638Z,26.54
2023-05-14T15:38:00.168Z,27.29
2023-05-14T15:40:01.729Z,27.15
2023-05-14T15:42:03.591Z,28.11
2023-05-14T15:44:05.335Z,30.80
2023-05-14T15:46:06.895Z,32.88
2023-05-14T15:48:08.443Z,34.44
2023-05-14T15:50:10.036Z,35.90
2023-05-14T15:52:11.727Z,36.79
2023-05-14T15:54:13.309Z,37.37
2023-05-14T15:56:15.005Z,36.98
2023-05-14T15:58:16.638Z,39.33
2023-05-14T16:00:18.654Z,38.77
2023-05-14T16:02:20.220Z,39.34
2023-05-14T16:04:21.804Z,40.58
2023-05-14T16:06:23.385Z,40.74
2023-05-14T16:08:24.961Z,39.89
2023-05-14T16:10:26.759Z,40.14
2023-05-14T16:12:28.516Z,40.85
2023-05-14T16:14:30.092Z,40.71
2023-05-14T16:16:31.689Z,40.35
2023-05-14T16:18:33.842Z,39.85
2023-05-14T16:20:35.424Z,38.04
2023-05-14T16:22:36.982Z,36.76
2023-05-14T16:24:38.635Z,35.86
2023-05-14T16:26:40.422Z,35.29
2023-05-14T16:28:42.750Z,34.18
2023-05-14T16:30:44.258Z,33.75
2023-05-14T16:32:49.401Z,32.33
2023-05-14T16:34:51.282Z,31.71
2023-05-14T16:36:53.069Z,35.23
2023-05-14T16:39:06.844Z,36.88
2023-05-14T16:41:11.737Z,36.35
2023-05-14T16:43:13.249Z,36.45
2023-05-14T16:45:14.818Z,37.67
2023-05-14T16:47:16.479Z,36.19
2023-05-14T16:49:22.234Z,35.84
2023-05-14T16:51:23.857Z,35.90
2023-05-14T16:53:25.809Z,36.06
2023-05-14T16:55:27.477Z,34.67
2023-05-14T16:57:29.036Z,31.26
2023-05-14T16:59:30.678Z,30.34
2023-05-14T17:01:32.298Z,29.00
2023-05-14T17:03:33.936Z,29.68
2023-05-14T17:05:35.808Z,28.74
2023-05-14T17:07:38.587Z,28.02
2023-05-14T17:09:40.274Z,29.48
2023-05-14T17:11:41.808Z,31.19
2023-05-14T17:13:43.379Z,30.98
2023-05-14T17:15:44.956Z,33.65
2023-05-14T17:17:46.522Z,33.26
2023-05-14T17:19:48.076Z,34.29
2023-05-14T17:21:49.921Z,35.89
2023-05-14T17:23:51.477Z,36.98
2023-05-14T17:25:53.055Z,37.95
2023-05-14T17:27:54.619Z,38.31
2023-05-14T17:29:56.289Z,37.85
2023-05-14T17:31:58.183Z,38.49
2023-05-14T17:33:59.953Z,39.14
2023-05-14T17:36:03.559Z,39.78
2023-05-14T17:38:05.299Z,40.82
2023-05-14T17:40:07.397Z,41.19
2023-05-14T17:42:09.195Z,42.35
2023-05-14T17:44:12.897Z,41.96
2023-05-14T17:46:14.881Z,41.86
2023-05-14T17:48:16.544Z,42.79
2023-05-14T17:50:18.807Z,43.07
2023-05-14T17:52:20.775Z,43.25
2023-05-14T17:54:22.333Z,44.64
2023-05-14T17:56:23.919Z,44.26
2023-05-14T17:58:26.323Z,45.66
2023-05-14T18:00:27.899Z,47.02
2023-05-14T18:02:29.571Z,47.04
2023-05-14T18:04:31.284Z,46.93
2023-05-14T18:06:32.935Z,49.34
2023-05-14T18:08:34.543Z,49.17
2023-05-14T18:10:36.326Z,49.53
2023-05-14T18:12:38.120Z,49.90
2023-05-14T18:14:39.661Z,50.29
2023-05-14T18:16:41.261Z,51.24
2023-05-14T18:18:42.879Z,51.76
2023-05-14T18:20:44.424Z,51.94
2023-05-14T18:22:46.123Z,52.68
2023-05-14T18:24:47.764Z,52.98
2023-05-14T18:26:49.427Z,54.04
2023-05-14T18:28:51.895Z,52.36
2023-05-14T18:30:53.571Z,53.42
2023-05-14T18:32:55.580Z,54.52
2023-05-14T18:34:57.291Z,53.17
2023-05-14T18:36:58.932Z,53.56
2023-05-14T18:39:00.971Z,54.45
2023-05-14T18:41:03.232Z,54.30
2023-05-14T18:43:05.205Z,54.20
2023-05-14T18:45:07.529Z,54.32
2023-05-14T18:47:09.719Z,54.51
2023-05-14T18:49:11.288Z,55.48
2023-05-14T18:51:13.095Z,55.56
2023-05-14T18:53:15.420Z,55.91
2023-05-14T18:55:17.168Z,56.22
2023-05-14T18:57:18.754Z,57.21
2023-05-14T18:59:20.333Z,58.33
2023-05-14T19:01:24.401Z,58.14
2023-05-14T19:03:26.202Z,58.98
2023-05-14T19:05:32.458Z,57.41
2023-05-14T19:07:33.966Z,57.37
2023-05-14T19:09:35.513Z,58.49
2023-05-14T19:11:37.072Z,58.92
2023-05-14T19:13:39.270Z,59.36
2023-05-14T19:15:41.235Z,60.44
2023-05-14T19:17:43.102Z,58.90
2023-05-14T19:19:44.669Z,57.64
2023-05-14T19:21:46.170Z,57.92
2023-05-14T19:23:47.723Z,59.49
2023-05-14T19:25:49.291Z,58.20
2023-05-14T19:27:51.217Z,58.72
2023-05-14T19:29:52.782Z,57.46
2023-05-14T19:31:54.429Z,59.03
2023-05-14T19:33:56.063Z,60.33
2023-05-14T19:35:57.786Z,59.85
2023-05-14T19:37:59.355Z,59.53
2023-05-14T19:40:01.047Z,59.46
2023-05-14T19:42:02.640Z,59.59
2023-05-14T19:44:04.187Z,60.31
2023-05-14T19:46:06.461Z,60.20
2023-05-14T19:48:08.920Z,60.83
2023-05-14T19:50:11.248Z,60.10
2023-05-14T19:52:12.894Z,59.52
2023-05-14T19:54:14.720Z,59.45
2023-05-14T19:56:16.588Z,60.76
2023-05-14T19:58:18.192Z,60.04
2023-05-14T20:00:19.852Z,60.91
2023-05-14T20:02:21.542Z,59.83
2023-05-14T20:04:23.246Z,60.90
2023-05-14T20:06:24.853Z,61.52
2023-05-14T20:08:26.471Z,61.46
2023-05-14T20:10:28.594Z,60.99
2023-05-14T20:12:30.199Z,61.54
2023-05-14T20:14:31.815Z,61.04
2023-05-14T20:16:33.584Z,61.19
2023-05-14T20:18:35.170Z,61.86
2023-05-14T20:20:36.811Z,62.57
2023-05-14T20:22:38.652Z,62.67
2023-05-14T20:24:41.245Z,62.86
2023-05-14T20:26:42.791Z,61.71
2023-05-14T20:28:44.484Z,61.98
2023-05-14T20:30:46.117Z,61.39
2023-05-14T20:32:47.783Z,62.37
2023-05-14T20:34:49.361Z,61.70
2023-05-14T20:36:51.885Z,62.21
2023-05-14T20:38:53.478Z,63.73
2023-05-14T20:40:55.050Z,63.73
2023-05-14T20:42:56.558Z,64.75
2023-05-14T20:44:58.056Z,65.12
2023-05-14T20:46:59.709Z,65.48
2023-05-14T20:49:02.123Z,66.57
2023-05-14T20:51:06.449Z,66.67
2023-05-14T20:53:08.081Z,67.01
2023-05-14T20:55:09.958Z,65.86
2023-05-14T20:57:12.404Z,66.81
2023-05-14T20:59:13.912Z,67.19
2023-05-14T21:01:15.496Z,67.25
2023-05-14T21:03:17.308Z,67.36
2023-05-14T21:05:19.103Z,68.22
2023-05-14T21:07:20.616Z,68.40
2023-05-14T21:09:23.693Z,68.24
2023-05-14T21:11:25.650Z,68.38
2023-05-14T21:13:27.158Z,68.47
2023-05-14T21:15:30.600Z,68.03
2023-05-14T21:17:32.469Z,68.56
2023-05-14T21:19:34.040Z,69.08
2023-05-14T21:21:35.566Z,69.02
2023-05-14T21:23:37.144Z,69.38
2023-05-14T21:25:38.696Z,68.46
2023-05-14T21:27:40.341Z,68.56
2023-05-14T21:29:41.938Z,68.10
2023-05-14T21:31:43.629Z,68.28
2023-05-14T21:33:45.287Z,68.60
2023-05-14T21:35:46.931Z,69.53
2023-05-14T21:37:48.523Z,68.90
2023-05-14T21:39:50.022Z,69.61
2023-05-14T21:41:51.789Z,70.27
2023-05-14T21:43:53.355Z,70.78
2023-05-14T21:45:55.825Z,70.50
2023-05-14T21:47:57.487Z,69.67
2023-05-14T21:49:59.035Z,71.49
2023-05-14T21:52:00.546Z,70.50
2023-05-14T21:54:02.023Z,70.99
2023-05-14T21:56:03.703Z,70.75
2023-05-14T21:58:06.797Z,71.72
2023-05-14T22:00:12.907Z,71.36
2023-05-14T22:02:14.625Z,72.02
2023-05-14T22:04:16.613Z,71.25
2023-05-14T22:06:18.282Z,72.31
2023-05-14T22:08:19.892Z,72.30
2023-05-14T22:10:21.416Z,73.29
2023-05-14T22:12:22.960Z,72.82
2023-05-14T22:14:26.474Z,72.00
2023-05-14T22:16:28.090Z,72.96
2023-05-14T22:18:29.739Z,72.42
2023-05-14T22:20:31.353Z,72.50
2023-05-14T22:22:36.507Z,71.29
2023-05-14T22:24:38.025Z,72.12
2023-05-14T22:26:39.591Z,72.59
2023-05-14T22:28:42.983Z,73.67
2023-05-14T22:30:44.615Z,73.63
2023-05-14T22:32:46.316Z,73.45
2023-05-14T22:34:47.866Z,73.64
2023-05-14T22:36:49.414Z,73.28
2023-05-14T22:38:50.946Z,71.63
2023-05-14T22:40:52.513Z,72.49
2023-05-14T22:42:54.079Z,72.76
2023-05-14T22:44:55.618Z,73.77
2023-05-14T22:46:57.330Z,73.61
2023-05-14T22:49:00.058Z,74.67
2023-05-14T22:51:01.571Z,73.97
2023-05-14T22:53:03.128Z,73.56
2023-05-14T22:55:04.955Z,73.89
2023-05-14T22:57:06.755Z,74.20
2023-05-14T22:59:08.250Z,73.66
2023-05-14T23:01:09.772Z,74.19
2023-05-14T23:03:11.398Z,73.94
2023-05-14T23:05:12.994Z,74.69
2023-05-14T23:07:15.289Z,74.66
2023-05-14T23:09:16.842Z,74.09
2023-05-14T23:11:18.372Z,73.85
2023-05-14T23:13:20.056Z,74.51
2023-05-14T23:15:21.873Z,75.08
2023-05-14T23:17:23.454Z,75.23
2023-05-14T23:19:25.155Z,75.43
2023-05-14T23:21:26.872Z,76.03
2023-05-14T23:23:28.455Z,75.20
2023-05-14T23:25:30.027Z,74.44
2023-05-14T23:27:31.591Z,75.66
2023-05-14T23:29:33.143Z,75.64
2023-05-14T23:31:35.340Z,76.62
2023-05-14T23:33:37.038Z,76.33
2023-05-14T23:35:39.256Z,76.12
2023-05-14T23:37:46.940Z,76.77
2023-05-14T23:39:48.722Z,77.38
2023-05-14T23:41:50.260Z,77.37
2023-05-14T23:43:51.838Z,77.62
2023-05-14T23:45:53.508Z,78.39
2023-05-14T23:48:00.695Z,77.94
2023-05-14T23:50:02.884Z,77.89
2023-05-14T23:52:04.769Z,77.23
2023-05-14T23:54:06.298Z,78.96
2023-05-14T23:56:08.291Z,78.07
2023-05-14T23:58:09.968Z,79.54
